createdAt,value
2023-03-26T00:01:54.259Z,99751.09
2023-03-26T00:05:07.930Z,99757.66
2023-03-26T00:08:20.274Z,99746.59
2023-03-26T00:11:32.910Z,99751.72
2023-03-26T00:14:45.241Z,99745.69
2023-03-26T00:17:57.913Z,99750.94
2023-03-26T00:21:15.249Z,99736.13
2023-03-26T00:24:29.818Z,99732.31
2023-03-26T00:27:42.196Z,99732.03
2023-03-26T00:31:02.430Z,99738.62
2023-03-26T00:34:18.603Z,99730.12
2023-03-26T00:37:33.897Z,99723.03
2023-03-26T00:40:48.082Z,99729.00
2023-03-26T00:44:00.801Z,99729.47
2023-03-26T00:47:13.389Z,99734.59
2023-03-26T00:50:26.103Z,99728.34
2023-03-26T00:53:39.025Z,99725.94
2023-03-26T00:56:55.878Z,99730.19
2023-03-26T01:00:11.225Z,99726.75
2023-03-26T01:03:27.762Z,99735.94
2023-03-26T01:06:42.359Z,99725.63
2023-03-26T01:09:59.055Z,99717.97
2023-03-26T01:13:11.415Z,99717.53
2023-03-26T01:16:37.237Z,99711.87
2023-03-26T01:20:15.155Z,99703.44
2023-03-26T01:23:29.976Z,99703.81
2023-03-26T01:26:54.695Z,99707.78
2023-03-26T01:30:34.766Z,99707.38
2023-03-26T01:33:50.858Z,99707.53
2023-03-26T01:37:13.403Z,99702.59
2023-03-26T01:40:38.812Z,99697.78
2023-03-26T01:43:55.328Z,99705.81
2023-03-26T01:47:07.743Z,99712.97
2023-03-26T01:50:20.456Z,99715.56
2023-03-26T01:53:33.677Z,99715.31
2023-03-26T01:56:52.382Z,99720.47
2023-03-26T02:00:28.778Z,99717.31
2023-03-26T02:03:49.307Z,99728.50
2023-03-26T02:08:09.718Z,99729.91
2023-03-26T02:11:23.333Z,99719.00
2023-03-26T02:14:36.234Z,99721.59
2023-03-26T02:17:49.581Z,99713.22
2023-03-26T02:21:26.258Z,99710.63
2023-03-26T02:24:38.822Z,99720.09
2023-03-26T02:27:52.265Z,99720.66
2023-03-26T02:31:05.787Z,99728.19
2023-03-26T02:34:18.398Z,99733.34
2023-03-26T02:37:33.818Z,99728.91
2023-03-26T02:40:48.558Z,99732.75
2023-03-26T02:44:00.949Z,99740.88
2023-03-26T02:47:15.013Z,99735.09
2023-03-26T02:50:32.626Z,99730.50
2023-03-26T02:53:47.562Z,99729.34
2023-03-26T02:57:00.705Z,99727.75
2023-03-26T03:00:14.623Z,99733.00
2023-03-26T03:03:28.174Z,99734.25
2023-03-26T03:06:42.045Z,99734.16
2023-03-26T03:09:54.446Z,99737.69
2023-03-26T03:13:09.940Z,99721.97
2023-03-26T03:16:22.361Z,99727.03
2023-03-26T03:19:35.207Z,99718.22
2023-03-26T03:22:47.575Z,99717.75
2023-03-26T03:26:00.145Z,99713.72
2023-03-26T03:29:13.068Z,99721.59
2023-03-26T03:32:25.821Z,99719.28
2023-03-26T03:35:40.045Z,99718.91
2023-03-26T03:38:52.845Z,99720.63
2023-03-26T03:42:05.442Z,99725.16
2023-03-26T03:45:18.871Z,99728.63
2023-03-26T03:48:31.857Z,99738.56
2023-03-26T03:51:45.069Z,99727.75
2023-03-26T03:55:00.453Z,99726.41
2023-03-26T03:58:15.004Z,99734.78
2023-03-26T04:01:30.745Z,99736.47
2023-03-26T04:04:46.442Z,99738.75
2023-03-26T04:08:00.106Z,99745.94
2023-03-26T04:11:14.470Z,99747.09
2023-03-26T04:14:28.584Z,99744.22
2023-03-26T04:17:45.449Z,99738.88
2023-03-26T04:21:02.403Z,99740.47
2023-03-26T04:24:15.284Z,99748.81
2023-03-26T04:27:32.095Z,99745.62
2023-03-26T04:30:46.928Z,99739.81
2023-03-26T04:34:05.595Z,99739.19
2023-03-26T04:37:34.576Z,99751.19
2023-03-26T04:40:48.390Z,99750.03
2023-03-26T04:44:02.461Z,99753.19
2023-03-26T04:47:15.002Z,99747.56
2023-03-26T04:50:28.144Z,99743.41
2023-03-26T04:53:40.591Z,99741.56
2023-03-26T04:56:59.380Z,99742.78
2023-03-26T05:00:18.704Z,99752.06
2023-03-26T05:03:32.602Z,99751.25
2023-03-26T05:06:45.605Z,99757.03
2023-03-26T05:09:59.184Z,99757.25
2023-03-26T05:13:14.496Z,99764.37
2023-03-26T05:16:29.781Z,99746.62
2023-03-26T05:19:42.292Z,99761.16
2023-03-26T05:22:55.107Z,99757.03
2023-03-26T05:26:09.445Z,99748.06
2023-03-26T05:29:24.215Z,99753.62
2023-03-26T05:32:38.166Z,99755.78
2023-03-26T05:36:03.997Z,99745.09
2023-03-26T05:39:16.764Z,99745.19
2023-03-26T05:42:31.598Z,99749.78
2023-03-26T05:45:47.792Z,99754.72
2023-03-26T05:49:01.398Z,99751.19
2023-03-26T05:52:18.958Z,99755.72
2023-03-26T05:55:33.442Z,99764.00
2023-03-26T05:58:50.907Z,99759.66
2023-03-26T06:02:06.503Z,99765.13
2023-03-26T06:05:20.130Z,99766.50
2023-03-26T06:08:33.558Z,99768.19
2023-03-26T06:11:46.334Z,99764.94
2023-03-26T06:14:58.752Z,99761.53
2023-03-26T06:18:11.880Z,99765.63
2023-03-26T06:21:25.773Z,99758.41
2023-03-26T06:24:38.639Z,99758.94
2023-03-26T06:27:51.327Z,99756.84
2023-03-26T06:31:04.961Z,99754.50
2023-03-26T06:34:17.684Z,99758.94
2023-03-26T06:37:30.411Z,99747.44
2023-03-26T06:40:43.067Z,99745.72
2023-03-26T06:43:59.044Z,99753.62
2023-03-26T06:47:11.764Z,99754.91
2023-03-26T06:50:26.566Z,99751.00
2023-03-26T06:53:38.996Z,99753.09
2023-03-26T06:56:52.668Z,99751.88
2023-03-26T07:00:06.159Z,99766.34
2023-03-26T07:03:22.623Z,99770.97
2023-03-26T07:06:47.555Z,99769.19
2023-03-26T07:10:10.617Z,99771.22
2023-03-26T07:13:24.140Z,99764.28
2023-03-26T07:16:39.732Z,99770.16
2023-03-26T07:19:54.261Z,99769.34
2023-03-26T07:23:10.528Z,99763.75
2023-03-26T07:26:35.413Z,99756.31
2023-03-26T07:30:10.533Z,99757.94
2023-03-26T07:33:54.866Z,99759.75
2023-03-26T07:37:16.297Z,99759.53
2023-03-26T07:41:13.689Z,99756.09
2023-03-26T07:45:03.867Z,99765.75
2023-03-26T07:48:21.157Z,99768.97
2023-03-26T07:51:35.215Z,99770.34
2023-03-26T07:54:48.256Z,99762.97
2023-03-26T07:58:20.869Z,99758.50
2023-03-26T08:01:34.594Z,99762.09
2023-03-26T08:04:50.503Z,99760.47
2023-03-26T08:08:32.541Z,99762.34
2023-03-26T08:11:53.743Z,99764.28
2023-03-26T08:15:29.580Z,99765.37
2023-03-26T08:18:48.739Z,99764.03
2023-03-26T08:22:06.297Z,99769.47
2023-03-26T08:25:36.010Z,99761.59
2023-03-26T08:29:13.286Z,99752.56
2023-03-26T08:32:25.900Z,99756.56
2023-03-26T08:35:42.637Z,99738.31
2023-03-26T08:38:55.466Z,99744.19
2023-03-26T08:42:26.740Z,99746.72
2023-03-26T08:46:12.962Z,99737.97
2023-03-26T08:49:42.497Z,99735.00
2023-03-26T08:53:08.581Z,99725.41
2023-03-26T08:56:49.598Z,99724.16
2023-03-26T09:00:33.135Z,99727.81
2023-03-26T09:03:48.456Z,99730.97
2023-03-26T09:07:21.027Z,99720.56
2023-03-26T09:10:52.295Z,99716.69
2023-03-26T09:14:20.953Z,99726.19
2023-03-26T09:17:48.603Z,99719.94
2023-03-26T09:21:37.507Z,99717.16
2023-03-26T09:24:55.924Z,99722.69
2023-03-26T09:28:27.072Z,99715.12
2023-03-26T09:32:16.692Z,99697.47
2023-03-26T09:35:52.905Z,99696.09
2023-03-26T09:39:08.813Z,99694.38
2023-03-26T09:42:46.226Z,99696.19
2023-03-26T09:46:21.985Z,99697.06
2023-03-26T09:49:48.747Z,99691.22
2023-03-26T09:53:09.330Z,99686.00
2023-03-26T09:56:27.998Z,99680.81
2023-03-26T10:00:07.139Z,99674.03
2023-03-26T10:03:38.221Z,99667.97
2023-03-26T10:07:12.469Z,99670.81
2023-03-26T10:10:43.564Z,99660.97
2023-03-26T10:14:04.057Z,99654.56
2023-03-26T10:17:28.683Z,99655.47
2023-03-26T10:20:53.170Z,99652.63
2023-03-26T10:24:20.845Z,99621.34
2023-03-26T10:27:57.784Z,99619.22
2023-03-26T10:31:40.347Z,99610.75
2023-03-26T10:35:12.124Z,99614.03
2023-03-26T10:39:02.120Z,99610.59
2023-03-26T10:42:33.412Z,99600.75
2023-03-26T10:46:09.838Z,99608.00
2023-03-26T10:49:41.444Z,99602.59
2023-03-26T10:53:21.123Z,99598.03
2023-03-26T10:56:40.424Z,99597.94
2023-03-26T10:59:55.670Z,99606.44
2023-03-26T11:03:11.312Z,99612.03
2023-03-26T11:06:31.168Z,99619.41
2023-03-26T11:10:14.852Z,99595.31
2023-03-26T11:13:43.144Z,99588.69
2023-03-26T11:17:08.745Z,99582.53
2023-03-26T11:20:36.161Z,99560.34
2023-03-26T11:24:05.001Z,99570.12
2023-03-26T11:27:25.854Z,99554.69
2023-03-26T11:31:04.565Z,99540.56
2023-03-26T11:34:18.956Z,99539.50
2023-03-26T11:37:47.897Z,99531.28
2023-03-26T11:41:00.340Z,99524.47
2023-03-26T11:44:19.229Z,99524.72
2023-03-26T11:47:35.856Z,99511.94
2023-03-26T11:50:51.448Z,99501.31
2023-03-26T11:54:04.938Z,99488.59
2023-03-26T11:57:33.399Z,99485.28
2023-03-26T12:00:45.853Z,99484.72
2023-03-26T12:04:18.667Z,99473.97
2023-03-26T12:07:32.505Z,99473.91
2023-03-26T12:10:45.540Z,99462.47
2023-03-26T12:14:02.733Z,99456.25
2023-03-26T12:17:31.389Z,99444.41
2023-03-26T12:20:45.048Z,99440.94
2023-03-26T12:23:58.647Z,99427.78
2023-03-26T12:27:22.159Z,99426.59
2023-03-26T12:30:37.130Z,99413.03
2023-03-26T12:34:22.376Z,99396.31
2023-03-26T12:37:37.096Z,99404.22
2023-03-26T12:40:54.901Z,99404.91
2023-03-26T12:44:54.653Z,99390.53
2023-03-26T12:48:03.925Z,99381.19
2023-03-26T12:51:26.786Z,99390.09
2023-03-26T12:54:57.185Z,99376.31
2023-03-26T12:58:25.926Z,99365.97
2023-03-26T13:02:20.009Z,99366.88
2023-03-26T13:05:44.096Z,99360.16
2023-03-26T13:09:12.050Z,99352.78
2023-03-26T13:12:25.084Z,99363.38
2023-03-26T13:15:38.711Z,99360.00
2023-03-26T13:19:22.537Z,99354.44
2023-03-26T13:22:43.717Z,99348.09
2023-03-26T13:25:56.216Z,99342.47
2023-03-26T13:29:18.045Z,99321.44
2023-03-26T13:32:40.076Z,99316.44
2023-03-26T13:36:22.366Z,99296.41
2023-03-26T13:39:41.573Z,99310.66
2023-03-26T13:43:02.677Z,99289.19
2023-03-26T13:46:24.697Z,99288.12
2023-03-26T13:49:48.900Z,99285.25
2023-03-26T13:53:25.805Z,99285.59
2023-03-26T13:56:44.468Z,99271.63
2023-03-26T13:59:58.761Z,99276.91
2023-03-26T14:03:18.159Z,99279.75
2023-03-26T14:06:57.578Z,99263.69
2023-03-26T14:10:27.405Z,99276.28
2023-03-26T14:13:55.831Z,99265.56
2023-03-26T14:17:27.108Z,99262.78
2023-03-26T14:21:03.189Z,99246.13
2023-03-26T14:24:43.094Z,99231.69
2023-03-26T14:27:58.481Z,99231.78
2023-03-26T14:31:34.226Z,99244.72
2023-03-26T14:34:59.000Z,99242.06
2023-03-26T14:38:23.161Z,99237.28
2023-03-26T14:41:48.983Z,99226.09
2023-03-26T14:45:19.960Z,99225.69
2023-03-26T14:48:54.480Z,99210.78
2023-03-26T14:52:30.191Z,99198.81
2023-03-26T14:56:00.572Z,99200.34
2023-03-26T14:59:49.951Z,99206.44
2023-03-26T15:03:07.505Z,99199.22
2023-03-26T15:06:48.385Z,99200.37
2023-03-26T15:10:15.608Z,99187.63
2023-03-26T15:13:31.016Z,99187.97
2023-03-26T15:17:01.324Z,99171.47
2023-03-26T15:20:26.084Z,99158.44
2023-03-26T15:24:08.977Z,99154.09
2023-03-26T15:27:46.180Z,99153.84
2023-03-26T15:31:14.112Z,99150.31
2023-03-26T15:34:51.556Z,99146.06
2023-03-26T15:38:23.385Z,99147.69
2023-03-26T15:41:38.809Z,99140.22
2023-03-26T15:45:14.726Z,99130.00
2023-03-26T15:48:39.155Z,99130.81
2023-03-26T15:52:09.964Z,99131.06
2023-03-26T15:55:36.211Z,99124.75
2023-03-26T15:59:15.684Z,99122.34
2023-03-26T16:02:50.220Z,99114.47
2023-03-26T16:06:14.115Z,99118.19
2023-03-26T16:09:38.752Z,99127.09
2023-03-26T16:13:28.227Z,99111.22
2023-03-26T16:16:54.120Z,99105.66
2023-03-26T16:20:38.654Z,99099.31
2023-03-26T16:24:13.408Z,99099.22
2023-03-26T16:27:30.322Z,99084.13
2023-03-26T16:30:46.072Z,99080.41
2023-03-26T16:34:20.536Z,99073.38
2023-03-26T16:37:39.626Z,99062.72
2023-03-26T16:41:00.287Z,99053.66
2023-03-26T16:44:53.276Z,99053.78
2023-03-26T16:48:27.695Z,99053.91
2023-03-26T16:51:39.895Z,99048.25
2023-03-26T16:55:14.505Z,99047.03
2023-03-26T16:59:16.866Z,99041.50
2023-03-26T17:02:45.858Z,99044.44
2023-03-26T17:06:03.453Z,99043.81
2023-03-26T17:09:19.400Z,99046.53
2023-03-26T17:12:31.599Z,99052.47
2023-03-26T17:16:00.001Z,99049.22
2023-03-26T17:19:29.655Z,99053.84
2023-03-26T17:22:56.975Z,99050.00
2023-03-26T17:26:21.667Z,99050.88
2023-03-26T17:30:06.361Z,99051.38
2023-03-26T17:33:36.204Z,99048.37
2023-03-26T17:36:56.271Z,99048.59
2023-03-26T17:40:48.064Z,99037.25
2023-03-26T17:44:01.014Z,99042.16
2023-03-26T17:47:23.837Z,99037.88
2023-03-26T17:51:00.705Z,99036.59
2023-03-26T17:54:31.531Z,99037.25
2023-03-26T17:57:44.779Z,99035.97
2023-03-26T18:01:34.751Z,99041.69
2023-03-26T18:04:48.770Z,99038.84
2023-03-26T18:08:02.104Z,99037.62
2023-03-26T18:11:31.725Z,99039.13
2023-03-26T18:14:55.881Z,99035.94
2023-03-26T18:18:28.140Z,99029.12
2023-03-26T18:21:40.481Z,99029.75
2023-03-26T18:24:59.750Z,99030.41
2023-03-26T18:28:13.393Z,99030.28
2023-03-26T18:31:26.509Z,99022.19
2023-03-26T18:34:46.246Z,99030.56
2023-03-26T18:38:00.059Z,99031.47
2023-03-26T18:41:21.851Z,99029.78
2023-03-26T18:44:36.743Z,99031.06
2023-03-26T18:47:51.926Z,99030.72
2023-03-26T18:51:06.088Z,99017.34
2023-03-26T18:54:19.360Z,99013.28
2023-03-26T18:57:32.078Z,99007.72
2023-03-26T19:00:44.436Z,98997.66
2023-03-26T19:04:05.811Z,98996.16
2023-03-26T19:07:22.646Z,98995.37
2023-03-26T19:10:35.262Z,98977.44
2023-03-26T19:13:51.000Z,98977.31
2023-03-26T19:17:04.708Z,98964.37
2023-03-26T19:20:22.725Z,98958.44
2023-03-26T19:23:37.959Z,98955.66
2023-03-26T19:26:50.862Z,98951.19
2023-03-26T19:30:03.716Z,98948.97
2023-03-26T19:33:18.447Z,98942.72
2023-03-26T19:36:32.347Z,98944.00
2023-03-26T19:39:49.470Z,98936.63
2023-03-26T19:43:03.691Z,98928.78
2023-03-26T19:46:16.911Z,98926.72
2023-03-26T19:49:34.360Z,98919.34
2023-03-26T19:52:46.698Z,98914.38
2023-03-26T19:56:13.210Z,98911.13
2023-03-26T19:59:25.614Z,98894.25
2023-03-26T20:02:38.278Z,98891.56
2023-03-26T20:05:50.894Z,98887.91
2023-03-26T20:09:04.219Z,98875.88
2023-03-26T20:12:16.874Z,98872.47
2023-03-26T20:15:31.085Z,98863.66
2023-03-26T20:18:43.784Z,98856.06
2023-03-26T20:21:56.565Z,98852.56
2023-03-26T20:25:30.984Z,98846.06
2023-03-26T20:28:48.320Z,98837.59
2023-03-26T20:32:01.424Z,98831.88
2023-03-26T20:35:15.590Z,98814.66
2023-03-26T20:38:39.242Z,98803.13
2023-03-26T20:41:53.073Z,98800.91
2023-03-26T20:45:18.049Z,98788.91
2023-03-26T20:48:30.414Z,98775.44
2023-03-26T20:51:43.716Z,98772.63
2023-03-26T20:54:56.149Z,98771.25
2023-03-26T20:58:12.531Z,98769.69
2023-03-26T21:01:25.128Z,98759.19
2023-03-26T21:04:37.813Z,98761.53
2023-03-26T21:08:02.362Z,98766.25
2023-03-26T21:11:26.304Z,98763.25
2023-03-26T21:14:44.343Z,98767.97
2023-03-26T21:17:57.494Z,98761.31
2023-03-26T21:21:28.618Z,98765.44
2023-03-26T21:25:01.433Z,98762.50
2023-03-26T21:28:49.202Z,98767.84
2023-03-26T21:32:05.809Z,98774.09
2023-03-26T21:35:18.636Z,98778.31
2023-03-26T21:38:32.926Z,98774.34
2023-03-26T21:42:05.399Z,98775.03
2023-03-26T21:45:19.055Z,98778.59
2023-03-26T21:48:31.709Z,98780.66
2023-03-26T21:51:44.660Z,98787.66
2023-03-26T21:55:00.678Z,98793.00
2023-03-26T21:58:37.019Z,98794.47
2023-03-26T22:02:02.887Z,98786.97
2023-03-26T22:05:17.341Z,98793.03
2023-03-26T22:08:31.552Z,98799.53
2023-03-26T22:11:44.316Z,98824.50
2023-03-26T22:14:58.124Z,98816.41
2023-03-26T22:18:10.766Z,98815.53
2023-03-26T22:21:23.610Z,98826.69
2023-03-26T22:24:37.178Z,98817.03
2023-03-26T22:27:49.926Z,98824.22
2023-03-26T22:31:08.618Z,98811.06
2023-03-26T22:34:23.133Z,98801.34
2023-03-26T22:37:37.155Z,98798.00
2023-03-26T22:40:58.785Z,98787.50
2023-03-26T22:44:19.876Z,98782.72
2023-03-26T22:47:34.392Z,98786.47
2023-03-26T22:50:56.936Z,98774.56
2023-03-26T22:54:09.628Z,98771.25
2023-03-26T22:57:22.825Z,98768.44
2023-03-26T23:00:36.205Z,98767.16
2023-03-26T23:03:49.059Z,98761.81
2023-03-26T23:07:01.496Z,98766.34
2023-03-26T23:10:14.096Z,98761.59
2023-03-26T23:13:26.677Z,98764.91
2023-03-26T23:16:39.353Z,98757.72
2023-03-26T23:19:51.713Z,98750.00
2023-03-26T23:23:04.308Z,98752.47
2023-03-26T23:26:16.711Z,98748.25
2023-03-26T23:29:30.151Z,98748.22
2023-03-26T23:32:42.515Z,98741.06
2023-03-26T23:35:59.921Z,98743.13
2023-03-26T23:39:12.330Z,98736.19
2023-03-26T23:42:28.988Z,98724.50
2023-03-26T23:45:46.480Z,98719.75
2023-03-26T23:49:00.135Z,98700.09
2023-03-26T23:52:12.756Z,98689.09
2023-03-26T23:55:28.247Z,98685.31
2023-03-26T23:58:40.599Z,98678.38
